Terminal Aerodrome Forecast
Issued by NWS Wilmington, OH

Current Version | Previous Version | Graphics & Text | Print | Product List | Glossary Off
Versions: 1 2 3 4 5 6 7 8 9 10 11 12 13 14 15 16 17 18 19 20 21 22 23 24 25 26 27 28 29 30

000
FTUS41 KILN 161135
TAFILN
TAF
KILN 161135Z 1612/1712 10006KT 2SM BR SCT003 OVC014
     FM161500 10006KT 3SM BR OVC015
     FM161800 13008KT P6SM OVC018
     FM170000 15006KT 3SM BR VCSH OVC006
     FM170600 18005KT 2SM BR VCSH OVC004=

USA.gov is the U.S. government's official web portal to all federal, state and local government web resources and services.